Rp Zug — HE7351 — position and weather

sailwx.info

Track history (hours):
 
Tides and Currents Weather Stations Pressure Air Temp Water Temp Dewpoint Dewpoint Depression Visibility Wind Speed Wind Dir Waves Ship Positions

Rp Zug

Last reported at 2017-May-30 07:00 UTC. Time now 2017-May-30 07:28 UTC.
Position N 51°42' E 006°27'.

Length 110 m; draft 2.7 m.

Type: Tanker. MMSI: 269057351.

Date/timePositionNaut miles runAvg speedWind from/ knotsBaromVisibWave heightAir tempDewpointWater temp
2017-May-30 07:00N 51°42' E 006°27'2 4.4
2017-May-30 06:30N 51°44' E 006°25'3 5.6
2017-May-30 06:00N 51°45' E 006°21'3 6.4
2017-May-30 05:30N 51°48' E 006°18'3 6.6
2017-May-30 05:00N 51°50' E 006°14'3 6.0
2017-May-30 04:30N 51°51' E 006°09'3 6.6
2017-May-30 04:00N 51°52' E 006°04'1 1.3
2017-May-30 03:30N 51°52' E 006°03'2 3.1
2017-May-30 03:00N 51°53' E 006°01'3 5.5
2017-May-30 02:30N 51°52' E 005°57'3 5.2
2017-May-30 02:00N 51°52' E 005°53'3 5.4
2017-May-30 01:30N 51°52' E 005°49'3 6.8
2017-May-30 01:00N 51°53' E 005°43'3 6.6
2017-May-30 00:29N 51°54' E 005°38'4 6.7
2017-May-29 23:57N 51°54' E 005°32'4 6.5
2017-May-29 23:16N 51°52' E 005°25'2 6.8
2017-May-29 23:00N 51°50' E 005°24'3 6.4
2017-May-29 22:29N 51°48' E 005°20'5 6.3
2017-May-29 21:39N 51°49' E 005°12'3 7.3
2017-May-29 21:18N 51°49' E 005°08'4 7.3
2017-May-29 20:48N 51°49' E 005°02'2 7.8
2017-May-29 20:30N 51°49' E 004°58'2 4.0
2017-May-29 20:00N 51°50' E 004°55'5 9.6
2017-May-29 19:30N 51°49' E 004°47'4 8.9
2017-May-29 19:00N 51°50' E 004°40'510.6
2017-May-29 18:30N 51°54' E 004°35'4 7.4
2017-May-29 18:00N 51°54' E 004°29'4 8.6
2017-May-29 17:30N 51°54' E 004°22'0 0.9
2017-May-29 17:00N 51°53' E 004°21'0 0.0
2017-May-29 16:30N 51°53' E 004°21'0 0.0
2017-May-29 16:00N 51°53' E 004°21'0 0.0
2017-May-29 15:30N 51°53' E 004°21'0 0.0
2017-May-29 15:00N 51°53' E 004°21'0 0.0
2017-May-29 14:00N 51°53' E 004°21'0 0.0
2017-May-29 13:30N 51°53' E 004°21'0 0.0
2017-May-29 13:00N 51°53' E 004°21'0 0.0
2017-May-29 12:30N 51°53' E 004°21'0 0.8
2017-May-29 12:00N 51°53' E 004°22'0 0.0
2017-May-29 11:30N 51°53' E 004°22'0 0.0
2017-May-29 11:00N 51°53' E 004°22'0 0.0
2017-May-29 10:30N 51°53' E 004°22'0 0.1
2017-May-29 10:00N 51°53' E 004°22'1 1.2
2017-May-29 09:30N 51°54' E 004°21'3 6.1
2017-May-29 09:00N 51°51' E 004°22'510.4
2017-May-29 08:30N 51°50' E 004°30'4 8.6
2017-May-29 08:00N 51°48' E 004°36'4 7.7
2017-May-29 07:30N 51°45' E 004°38'4 7.7
2017-May-29 07:00N 51°42' E 004°33'4 8.9
2017-May-29 06:30N 51°42' E 004°26'14 5.7
2017-May-29 04:07N 51°31' E 004°13'2 9.0
2017-May-29 03:56N 51°29' E 004°13'3 3.6
2017-May-29 03:11N 51°27' E 004°14'1 5.0
2017-May-29 02:54N 51°25' E 004°14'3 8.2
2017-May-29 02:30N 51°22' E 004°17'4 8.3
2017-May-29 01:59N 51°18' E 004°19'4 7.7
2017-May-29 01:30N 51°15' E 004°22'0 0.0
2017-May-29 00:57N 51°15' E 004°22'0 0.0
2017-May-29 00:30N 51°15' E 004°22'0 0.0
2017-May-29 00:00N 51°15' E 004°22'0 0.0
2017-May-28 23:30N 51°15' E 004°22'0 0.0
2017-May-28 23:00N 51°15' E 004°22'0 0.0
2017-May-28 22:30N 51°15' E 004°22'0 0.0
2017-May-28 21:57N 51°15' E 004°22'0 0.0
2017-May-28 21:30N 51°15' E 004°22'0 0.0
2017-May-28 20:57N 51°15' E 004°22'0 0.0
2017-May-28 20:30N 51°15' E 004°22'0 0.0
2017-May-28 20:00N 51°15' E 004°22'0 0.0
2017-May-28 19:30N 51°15' E 004°22'0 0.0
2017-May-28 19:00N 51°15' E 004°22'0 0.1
2017-May-28 18:28N 51°15' E 004°22'0 0.5
2017-May-28 17:55N 51°15' E 004°23'0 0.0
2017-May-28 17:28N 51°15' E 004°23'0 0.0
2017-May-28 16:58N 51°15' E 004°23'0 0.0
2017-May-28 16:28N 51°15' E 004°23'0 0.0
2017-May-28 15:58N 51°15' E 004°23'0 0.0
2017-May-28 15:28N 51°15' E 004°23'0 0.0
2017-May-28 14:58N 51°15' E 004°23'0 0.0
2017-May-28 13:58N 51°15' E 004°23'0 0.0
2017-May-28 13:28N 51°15' E 004°23'0 0.0
2017-May-28 12:58N 51°15' E 004°23'0 0.0
2017-May-28 12:25N 51°15' E 004°23'0 0.0
2017-May-28 11:58N 51°15' E 004°23'0 0.0
2017-May-28 11:28N 51°15' E 004°23'0 0.0
2017-May-28 10:58N 51°15' E 004°23'0 0.0
2017-May-28 10:19N 51°15' E 004°23'0 0.0
2017-May-28 09:58N 51°15' E 004°23'0 0.0
2017-May-28 09:25N 51°15' E 004°23'0 0.0
2017-May-28 08:58N 51°15' E 004°23'0 0.0
2017-May-28 08:25N 51°15' E 004°23'0 0.0
2017-May-28 07:58N 51°15' E 004°23'0 0.0
2017-May-28 07:25N 51°15' E 004°23'0 0.0
2017-May-28 06:58N 51°15' E 004°23'0 0.0
2017-May-28 06:28N 51°15' E 004°23'0 0.0
2017-May-28 05:58N 51°15' E 004°23'0 0.0
2017-May-28 05:28N 51°15' E 004°23'0 0.0
2017-May-28 04:58N 51°15' E 004°23'0 0.0
2017-May-28 04:28N 51°15' E 004°23'0 0.0
2017-May-28 03:55N 51°15' E 004°23'0 0.0
2017-May-28 03:22N 51°15' E 004°23'0 0.0
2017-May-28 02:55N 51°15' E 004°23'0 0.0
2017-May-28 02:25N 51°15' E 004°23'0 0.0
2017-May-28 01:58N 51°15' E 004°23'0 0.0
2017-May-28 01:28N 51°15' E 004°23'0 0.0
2017-May-28 00:58N 51°15' E 004°23'0 0.0
2017-May-28 00:28N 51°15' E 004°23'0 0.0
2017-May-27 23:58N 51°15' E 004°23'0 0.0
2017-May-27 23:28N 51°15' E 004°23'0 0.0
2017-May-27 22:55N 51°15' E 004°23'0 0.0
2017-May-27 22:28N 51°15' E 004°23'0 0.0
2017-May-27 21:58N 51°15' E 004°23'0 0.0
2017-May-27 21:28N 51°15' E 004°23'0 0.0
2017-May-27 20:58N 51°15' E 004°23'0 0.0
2017-May-27 20:28N 51°15' E 004°23'0 0.0
2017-May-27 19:58N 51°15' E 004°23'0 0.0
2017-May-27 19:28N 51°15' E 004°23'0 0.0
2017-May-27 18:58N 51°15' E 004°23'0 0.0
2017-May-27 18:28N 51°15' E 004°23'0 0.0
2017-May-27 17:58N 51°15' E 004°23'0 0.0
2017-May-27 17:28N 51°15' E 004°23'0 0.0
2017-May-27 16:58N 51°15' E 004°23'0 0.0
2017-May-27 16:28N 51°15' E 004°23'0 0.0
2017-May-27 15:58N 51°15' E 004°23'0 0.0
2017-May-27 15:28N 51°15' E 004°23'0 0.0
2017-May-27 14:58N 51°15' E 004°23'0 0.0
2017-May-27 14:28N 51°15' E 004°23'0 0.0
2017-May-27 13:28N 51°15' E 004°23'0 0.0
2017-May-27 12:58N 51°15' E 004°23'0 0.0
2017-May-27 12:28N 51°15' E 004°23'0 0.0
2017-May-27 11:58N 51°15' E 004°23'0 0.0
2017-May-27 11:28N 51°15' E 004°23'0 0.0
2017-May-27 10:58N 51°15' E 004°23'0 0.0
2017-May-27 10:25N 51°15' E 004°23'0 0.0
2017-May-27 09:58N 51°15' E 004°23'0 0.0
2017-May-27 09:28N 51°15' E 004°23'0 0.0
2017-May-27 08:58N 51°15' E 004°23'0 0.0
2017-May-27 08:28N 51°15' E 004°23'0 0.0
2017-May-27 07:58N 51°15' E 004°23'0 0.0
2017-May-27 07:28N 51°15' E 004°23'0 0.0
2017-May-27 06:58N 51°15' E 004°23'0 0.0
2017-May-27 06:28N 51°15' E 004°23'0 0.0
2017-May-27 05:58N 51°15' E 004°23'0 0.0
2017-May-27 05:28N 51°15' E 004°23'0 0.0
2017-May-27 04:58N 51°15' E 004°23'0 0.0
2017-May-27 04:28N 51°15' E 004°23'0 0.0
2017-May-27 03:58N 51°15' E 004°23'0 0.0
2017-May-27 03:28N 51°15' E 004°23'0 0.0
2017-May-27 02:58N 51°15' E 004°23'0 0.0
2017-May-27 02:28N 51°15' E 004°23'0 0.0
2017-May-27 01:58N 51°15' E 004°23'0 0.0
2017-May-27 01:28N 51°15' E 004°23'0 0.0
2017-May-27 00:58N 51°15' E 004°23'0 0.0
2017-May-27 00:28N 51°15' E 004°23'0 0.0
2017-May-26 23:58N 51°15' E 004°23'0 0.0
2017-May-26 23:25N 51°15' E 004°23'0 0.0
2017-May-26 22:58N 51°15' E 004°23'0 0.0
2017-May-26 22:28N 51°15' E 004°23'0 0.0
2017-May-26 21:58N 51°15' E 004°23'0 0.0
2017-May-26 21:28N 51°15' E 004°23'0 0.0
2017-May-26 20:58N 51°15' E 004°23'0 0.0
2017-May-26 20:25N 51°15' E 004°23'0 0.0
2017-May-26 19:58N 51°15' E 004°23'0 0.0
2017-May-26 19:28N 51°15' E 004°23'0 0.0
2017-May-26 18:58N 51°15' E 004°23'0 0.0
2017-May-26 18:28N 51°15' E 004°23'0 0.0
2017-May-26 17:58N 51°15' E 004°23'0 0.0
2017-May-26 17:28N 51°15' E 004°23'0 0.0
2017-May-26 16:58N 51°15' E 004°23'0 0.0
2017-May-26 16:25N 51°15' E 004°23'0 0.0
2017-May-26 15:58N 51°15' E 004°23'0 0.0
2017-May-26 15:28N 51°15' E 004°23'0 0.0
2017-May-26 14:58N 51°15' E 004°23'0 0.0
2017-May-26 14:28N 51°15' E 004°23'0 0.0
2017-May-26 13:28N 51°15' E 004°23'0 0.0
2017-May-26 12:58N 51°15' E 004°23'0 0.0
2017-May-26 12:28N 51°15' E 004°23'0 0.0
2017-May-26 11:58N 51°15' E 004°23'0 0.0
2017-May-26 11:28N 51°15' E 004°23'0 0.0
2017-May-26 10:58N 51°15' E 004°23'0 0.0
2017-May-26 10:28N 51°15' E 004°23'0 0.0
2017-May-26 09:58N 51°15' E 004°23'0 0.0
2017-May-26 09:28N 51°15' E 004°23'0 0.0
2017-May-26 08:58N 51°15' E 004°23'0 0.0
2017-May-26 08:28N 51°15' E 004°23'0 0.0
2017-May-26 07:58N 51°15' E 004°23'0 0.0
2017-May-26 07:28N 51°15' E 004°23'0 0.0
2017-May-26 07:00N 51°15' E 004°23'0 0.0
2017-May-26 06:30N 51°15' E 004°23'0 0.0
2017-May-26 06:00N 51°15' E 004°23'0 0.0
2017-May-26 05:30N 51°15' E 004°23'2 4.0
2017-May-26 05:00N 51°17' E 004°20'9 2.2
2017-May-26 00:49N 51°25' E 004°14'13 7.0
2017-May-25 22:58N 51°38' E 004°14'510.3
2017-May-25 22:27N 51°40' E 004°22'2 4.2
2017-May-25 21:55N 51°42' E 004°25'3 8.1
2017-May-25 21:29N 51°42' E 004°30'5 9.5
2017-May-25 21:00N 51°43' E 004°38'5 9.8
2017-May-25 20:30N 51°45' E 004°44'4 9.0
2017-May-25 20:00N 51°48' E 004°50'510.1
2017-May-25 19:30N 51°49' E 004°58'1510.8
2017-May-25 18:09N 51°48' E 005°22'611.5
2017-May-25 17:40N 51°53' E 005°27'211.7
2017-May-25 17:27N 51°53' E 005°31'511.7
2017-May-25 17:00N 51°54' E 005°39'611.8
2017-May-25 16:30N 51°52' E 005°48'5 9.8
2017-May-25 16:00N 51°52' E 005°56'4 8.9
2017-May-25 15:30N 51°52' E 006°03'612.1
2017-May-25 15:00N 51°50' E 006°12'1110.2
2017-May-25 13:58N 51°43' E 006°25'511.1
2017-May-25 13:29N 51°40' E 006°32'4 8.9
2017-May-25 13:00N 51°36' E 006°36'4 8.3
2017-May-25 12:30N 51°33' E 006°41'5 9.1
2017-May-25 12:00N 51°29' E 006°41'510.7
2017-May-25 11:30N 51°24' E 006°45'7 8.1
2017-May-25 10:36N 51°17' E 006°42'211.0
2017-May-25 10:22N 51°15' E 006°45'2 6.5
2017-May-25 10:00N 51°13' E 006°44'5 9.1
2017-May-25 09:30N 51°09' E 006°48'12 8.6
2017-May-25 08:06N 50°59' E 006°59'2 9.9
2017-May-25 07:56N 50°58' E 006°60'4 9.5
2017-May-25 07:30N 50°54' E 007°01'4 7.9
2017-May-25 06:59N 50°50' E 006°59'510.8
2017-May-25 06:30N 50°46' E 007°05'611.4
2017-May-25 05:59N 50°41' E 007°11'90 9.2
2017-May-24 20:11N 49°27' E 008°29'14 7.5
2017-May-24 18:20N 49°13' E 008°23'  
2017-May-22 13:18N 49°12' E 008°23'1 2.3
2017-May-22 13:00N 49°13' E 008°23'99 3.8
2017-May-21 10:54N 50°41' E 007°11'3 5.0
2017-May-21 10:18N 50°43' E 007°08'1 4.9
2017-May-21 10:00N 50°44' E 007°07'3 5.1
2017-May-21 09:30N 50°46' E 007°04'2 4.8
2017-May-21 08:59N 50°48' E 007°02'2 4.4
2017-May-21 08:29N 50°50' E 006°59'2 4.2
2017-May-21 07:57N 50°52' E 007°01'2 4.2
2017-May-21 07:24N 50°54' E 007°03'2 4.5
2017-May-21 06:51N 50°54' E 006°59'2 5.3
2017-May-21 06:30N 50°56' E 006°58'14 3.6
2017-May-21 02:40N 51°09' E 006°49'1 4.5
2017-May-21 02:29N 51°09' E 006°48'2 4.7
2017-May-21 02:00N 51°11' E 006°47'2 4.0
2017-May-21 01:30N 51°12' E 006°44'2 3.7
2017-May-21 01:00N 51°14' E 006°44'1 2.7
2017-May-21 00:30N 51°15' E 006°46'7 4.0
2017-May-20 22:47N 51°21' E 006°40'1 3.5
2017-May-20 22:23N 51°22' E 006°40'2 5.2
2017-May-20 22:00N 51°23' E 006°43'2 4.9
2017-May-20 21:30N 51°25' E 006°44'2 4.8
2017-May-20 21:00N 51°27' E 006°43'2 4.8
2017-May-20 20:30N 51°29' E 006°41'2 4.6
2017-May-20 20:00N 51°31' E 006°43'3 5.1
2017-May-20 19:30N 51°33' E 006°41'2 4.0
2017-May-20 19:00N 51°35' E 006°39'2 4.3
2017-May-20 18:30N 51°35' E 006°36'3 5.9
2017-May-20 18:00N 51°38' E 006°35'2 4.2
2017-May-20 17:30N 51°40' E 006°34'3 5.8
2017-May-20 17:01N 51°40' E 006°30'3 5.7
2017-May-20 16:30N 51°42' E 006°27'2 4.7
2017-May-20 16:00N 51°44' E 006°25'2 4.2
2017-May-20 15:31N 51°45' E 006°22'3 5.6
2017-May-20 15:01N 51°47' E 006°19'3 6.4
2017-May-20 14:30N 51°49' E 006°15'6 6.0
2017-May-20 13:31N 51°51' E 006°06'2 4.1
2017-May-20 13:01N 51°52' E 006°03'0 0.0
2017-May-20 12:31N 51°52' E 006°03'0 0.9
2017-May-20 12:00N 51°52' E 006°03'1 2.1
2017-May-20 11:30N 51°53' E 006°01'3 5.4
2017-May-20 11:01N 51°51' E 005°57'3 5.3
2017-May-20 10:31N 51°52' E 005°53'3 5.2
2017-May-20 10:01N 51°52' E 005°49'3 6.4
2017-May-20 09:29N 51°53' E 005°44'3 6.2
2017-May-20 09:01N 51°54' E 005°39'  
Track history (hours):
 
Tides and Currents Weather Stations Pressure Air Temp Water Temp Dewpoint Dewpoint Depression Visibility Wind Speed Wind Dir Waves Ship Positions

Rp Zug

Last reported at 2017-May-30 07:00 UTC. Time now 2017-May-30 07:28 UTC.
Position N 51°42' E 006°27'.

Length 110 m; draft 2.7 m.

Type: Tanker. MMSI: 269057351.

Date/timePositionNaut miles runAvg speedWind from/ knotsBaromVisibWave heightAir tempDewpointWater temp
2017-May-30 07:00N 51°42' E 006°27'2 4.4
2017-May-30 06:30N 51°44' E 006°25'3 5.6
2017-May-30 06:00N 51°45' E 006°21'3 6.4
2017-May-30 05:30N 51°48' E 006°18'3 6.6
2017-May-30 05:00N 51°50' E 006°14'3 6.0
2017-May-30 04:30N 51°51' E 006°09'3 6.6
2017-May-30 04:00N 51°52' E 006°04'1 1.3
2017-May-30 03:30N 51°52' E 006°03'2 3.1
2017-May-30 03:00N 51°53' E 006°01'3 5.5
2017-May-30 02:30N 51°52' E 005°57'3 5.2
2017-May-30 02:00N 51°52' E 005°53'3 5.4
2017-May-30 01:30N 51°52' E 005°49'3 6.8
2017-May-30 01:00N 51°53' E 005°43'3 6.6
2017-May-30 00:29N 51°54' E 005°38'4 6.7
2017-May-29 23:57N 51°54' E 005°32'4 6.5
2017-May-29 23:16N 51°52' E 005°25'2 6.8
2017-May-29 23:00N 51°50' E 005°24'3 6.4
2017-May-29 22:29N 51°48' E 005°20'5 6.3
2017-May-29 21:39N 51°49' E 005°12'3 7.3
2017-May-29 21:18N 51°49' E 005°08'4 7.3
2017-May-29 20:48N 51°49' E 005°02'2 7.8
2017-May-29 20:30N 51°49' E 004°58'2 4.0
2017-May-29 20:00N 51°50' E 004°55'5 9.6
2017-May-29 19:30N 51°49' E 004°47'4 8.9
2017-May-29 19:00N 51°50' E 004°40'510.6
2017-May-29 18:30N 51°54' E 004°35'4 7.4
2017-May-29 18:00N 51°54' E 004°29'4 8.6
2017-May-29 17:30N 51°54' E 004°22'0 0.9
2017-May-29 17:00N 51°53' E 004°21'0 0.0
2017-May-29 16:30N 51°53' E 004°21'0 0.0
2017-May-29 16:00N 51°53' E 004°21'0 0.0
2017-May-29 15:30N 51°53' E 004°21'0 0.0
2017-May-29 15:00N 51°53' E 004°21'0 0.0
2017-May-29 14:00N 51°53' E 004°21'0 0.0
2017-May-29 13:30N 51°53' E 004°21'0 0.0
2017-May-29 13:00N 51°53' E 004°21'0 0.0
2017-May-29 12:30N 51°53' E 004°21'0 0.8
2017-May-29 12:00N 51°53' E 004°22'0 0.0
2017-May-29 11:30N 51°53' E 004°22'0 0.0
2017-May-29 11:00N 51°53' E 004°22'0 0.0
2017-May-29 10:30N 51°53' E 004°22'0 0.1
2017-May-29 10:00N 51°53' E 004°22'1 1.2
2017-May-29 09:30N 51°54' E 004°21'3 6.1
2017-May-29 09:00N 51°51' E 004°22'510.4
2017-May-29 08:30N 51°50' E 004°30'4 8.6
2017-May-29 08:00N 51°48' E 004°36'4 7.7
2017-May-29 07:30N 51°45' E 004°38'4 7.7
2017-May-29 07:00N 51°42' E 004°33'4 8.9
2017-May-29 06:30N 51°42' E 004°26'14 5.7
2017-May-29 04:07N 51°31' E 004°13'2 9.0
2017-May-29 03:56N 51°29' E 004°13'3 3.6
2017-May-29 03:11N 51°27' E 004°14'1 5.0
2017-May-29 02:54N 51°25' E 004°14'3 8.2
2017-May-29 02:30N 51°22' E 004°17'4 8.3
2017-May-29 01:59N 51°18' E 004°19'4 7.7
2017-May-29 01:30N 51°15' E 004°22'0 0.0
2017-May-29 00:57N 51°15' E 004°22'0 0.0
2017-May-29 00:30N 51°15' E 004°22'0 0.0
2017-May-29 00:00N 51°15' E 004°22'0 0.0
2017-May-28 23:30N 51°15' E 004°22'0 0.0
2017-May-28 23:00N 51°15' E 004°22'0 0.0
2017-May-28 22:30N 51°15' E 004°22'0 0.0
2017-May-28 21:57N 51°15' E 004°22'0 0.0
2017-May-28 21:30N 51°15' E 004°22'0 0.0
2017-May-28 20:57N 51°15' E 004°22'0 0.0
2017-May-28 20:30N 51°15' E 004°22'0 0.0
2017-May-28 20:00N 51°15' E 004°22'0 0.0
2017-May-28 19:30N 51°15' E 004°22'0 0.0
2017-May-28 19:00N 51°15' E 004°22'0 0.1
2017-May-28 18:28N 51°15' E 004°22'0 0.5
2017-May-28 17:55N 51°15' E 004°23'0 0.0
2017-May-28 17:28N 51°15' E 004°23'0 0.0
2017-May-28 16:58N 51°15' E 004°23'0 0.0
2017-May-28 16:28N 51°15' E 004°23'0 0.0
2017-May-28 15:58N 51°15' E 004°23'0 0.0
2017-May-28 15:28N 51°15' E 004°23'0 0.0
2017-May-28 14:58N 51°15' E 004°23'0 0.0
2017-May-28 13:58N 51°15' E 004°23'0 0.0
2017-May-28 13:28N 51°15' E 004°23'0 0.0
2017-May-28 12:58N 51°15' E 004°23'0 0.0
2017-May-28 12:25N 51°15' E 004°23'0 0.0
2017-May-28 11:58N 51°15' E 004°23'0 0.0
2017-May-28 11:28N 51°15' E 004°23'0 0.0
2017-May-28 10:58N 51°15' E 004°23'0 0.0
2017-May-28 10:19N 51°15' E 004°23'0 0.0
2017-May-28 09:58N 51°15' E 004°23'0 0.0
2017-May-28 09:25N 51°15' E 004°23'0 0.0
2017-May-28 08:58N 51°15' E 004°23'0 0.0
2017-May-28 08:25N 51°15' E 004°23'0 0.0
2017-May-28 07:58N 51°15' E 004°23'0 0.0
2017-May-28 07:25N 51°15' E 004°23'0 0.0
2017-May-28 06:58N 51°15' E 004°23'0 0.0
2017-May-28 06:28N 51°15' E 004°23'0 0.0
2017-May-28 05:58N 51°15' E 004°23'0 0.0
2017-May-28 05:28N 51°15' E 004°23'0 0.0
2017-May-28 04:58N 51°15' E 004°23'0 0.0
2017-May-28 04:28N 51°15' E 004°23'0 0.0
2017-May-28 03:55N 51°15' E 004°23'0 0.0
2017-May-28 03:22N 51°15' E 004°23'0 0.0
2017-May-28 02:55N 51°15' E 004°23'0 0.0
2017-May-28 02:25N 51°15' E 004°23'0 0.0
2017-May-28 01:58N 51°15' E 004°23'0 0.0
2017-May-28 01:28N 51°15' E 004°23'0 0.0
2017-May-28 00:58N 51°15' E 004°23'0 0.0
2017-May-28 00:28N 51°15' E 004°23'0 0.0
2017-May-27 23:58N 51°15' E 004°23'0 0.0
2017-May-27 23:28N 51°15' E 004°23'0 0.0
2017-May-27 22:55N 51°15' E 004°23'0 0.0
2017-May-27 22:28N 51°15' E 004°23'0 0.0
2017-May-27 21:58N 51°15' E 004°23'0 0.0
2017-May-27 21:28N 51°15' E 004°23'0 0.0
2017-May-27 20:58N 51°15' E 004°23'0 0.0
2017-May-27 20:28N 51°15' E 004°23'0 0.0
2017-May-27 19:58N 51°15' E 004°23'0 0.0
2017-May-27 19:28N 51°15' E 004°23'0 0.0
2017-May-27 18:58N 51°15' E 004°23'0 0.0
2017-May-27 18:28N 51°15' E 004°23'0 0.0
2017-May-27 17:58N 51°15' E 004°23'0 0.0
2017-May-27 17:28N 51°15' E 004°23'0 0.0
2017-May-27 16:58N 51°15' E 004°23'0 0.0
2017-May-27 16:28N 51°15' E 004°23'0 0.0
2017-May-27 15:58N 51°15' E 004°23'0 0.0
2017-May-27 15:28N 51°15' E 004°23'0 0.0
2017-May-27 14:58N 51°15' E 004°23'0 0.0
2017-May-27 14:28N 51°15' E 004°23'0 0.0
2017-May-27 13:28N 51°15' E 004°23'0 0.0
2017-May-27 12:58N 51°15' E 004°23'0 0.0
2017-May-27 12:28N 51°15' E 004°23'0 0.0
2017-May-27 11:58N 51°15' E 004°23'0 0.0
2017-May-27 11:28N 51°15' E 004°23'0 0.0
2017-May-27 10:58N 51°15' E 004°23'0 0.0
2017-May-27 10:25N 51°15' E 004°23'0 0.0
2017-May-27 09:58N 51°15' E 004°23'0 0.0
2017-May-27 09:28N 51°15' E 004°23'0 0.0
2017-May-27 08:58N 51°15' E 004°23'0 0.0
2017-May-27 08:28N 51°15' E 004°23'0 0.0
2017-May-27 07:58N 51°15' E 004°23'0 0.0
2017-May-27 07:28N 51°15' E 004°23'0 0.0
2017-May-27 06:58N 51°15' E 004°23'0 0.0
2017-May-27 06:28N 51°15' E 004°23'0 0.0
2017-May-27 05:58N 51°15' E 004°23'0 0.0
2017-May-27 05:28N 51°15' E 004°23'0 0.0
2017-May-27 04:58N 51°15' E 004°23'0 0.0
2017-May-27 04:28N 51°15' E 004°23'0 0.0
2017-May-27 03:58N 51°15' E 004°23'0 0.0
2017-May-27 03:28N 51°15' E 004°23'0 0.0
2017-May-27 02:58N 51°15' E 004°23'0 0.0
2017-May-27 02:28N 51°15' E 004°23'0 0.0
2017-May-27 01:58N 51°15' E 004°23'0 0.0
2017-May-27 01:28N 51°15' E 004°23'0 0.0
2017-May-27 00:58N 51°15' E 004°23'0 0.0
2017-May-27 00:28N 51°15' E 004°23'0 0.0
2017-May-26 23:58N 51°15' E 004°23'0 0.0
2017-May-26 23:25N 51°15' E 004°23'0 0.0
2017-May-26 22:58N 51°15' E 004°23'0 0.0
2017-May-26 22:28N 51°15' E 004°23'0 0.0
2017-May-26 21:58N 51°15' E 004°23'0 0.0
2017-May-26 21:28N 51°15' E 004°23'0 0.0
2017-May-26 20:58N 51°15' E 004°23'0 0.0
2017-May-26 20:25N 51°15' E 004°23'0 0.0
2017-May-26 19:58N 51°15' E 004°23'0 0.0
2017-May-26 19:28N 51°15' E 004°23'0 0.0
2017-May-26 18:58N 51°15' E 004°23'0 0.0
2017-May-26 18:28N 51°15' E 004°23'0 0.0
2017-May-26 17:58N 51°15' E 004°23'0 0.0
2017-May-26 17:28N 51°15' E 004°23'0 0.0
2017-May-26 16:58N 51°15' E 004°23'0 0.0
2017-May-26 16:25N 51°15' E 004°23'0 0.0
2017-May-26 15:58N 51°15' E 004°23'0 0.0
2017-May-26 15:28N 51°15' E 004°23'0 0.0
2017-May-26 14:58N 51°15' E 004°23'0 0.0
2017-May-26 14:28N 51°15' E 004°23'0 0.0
2017-May-26 13:28N 51°15' E 004°23'0 0.0
2017-May-26 12:58N 51°15' E 004°23'0 0.0
2017-May-26 12:28N 51°15' E 004°23'0 0.0
2017-May-26 11:58N 51°15' E 004°23'0 0.0
2017-May-26 11:28N 51°15' E 004°23'0 0.0
2017-May-26 10:58N 51°15' E 004°23'0 0.0
2017-May-26 10:28N 51°15' E 004°23'0 0.0
2017-May-26 09:58N 51°15' E 004°23'0 0.0
2017-May-26 09:28N 51°15' E 004°23'0 0.0
2017-May-26 08:58N 51°15' E 004°23'0 0.0
2017-May-26 08:28N 51°15' E 004°23'0 0.0
2017-May-26 07:58N 51°15' E 004°23'0 0.0
2017-May-26 07:28N 51°15' E 004°23'0 0.0
2017-May-26 07:00N 51°15' E 004°23'0 0.0
2017-May-26 06:30N 51°15' E 004°23'0 0.0
2017-May-26 06:00N 51°15' E 004°23'0 0.0
2017-May-26 05:30N 51°15' E 004°23'2 4.0
2017-May-26 05:00N 51°17' E 004°20'9 2.2
2017-May-26 00:49N 51°25' E 004°14'13 7.0
2017-May-25 22:58N 51°38' E 004°14'510.3
2017-May-25 22:27N 51°40' E 004°22'2 4.2
2017-May-25 21:55N 51°42' E 004°25'3 8.1
2017-May-25 21:29N 51°42' E 004°30'5 9.5
2017-May-25 21:00N 51°43' E 004°38'5 9.8
2017-May-25 20:30N 51°45' E 004°44'4 9.0
2017-May-25 20:00N 51°48' E 004°50'510.1
2017-May-25 19:30N 51°49' E 004°58'1510.8
2017-May-25 18:09N 51°48' E 005°22'611.5
2017-May-25 17:40N 51°53' E 005°27'211.7
2017-May-25 17:27N 51°53' E 005°31'511.7
2017-May-25 17:00N 51°54' E 005°39'611.8
2017-May-25 16:30N 51°52' E 005°48'5 9.8
2017-May-25 16:00N 51°52' E 005°56'4 8.9
2017-May-25 15:30N 51°52' E 006°03'612.1
2017-May-25 15:00N 51°50' E 006°12'1110.2
2017-May-25 13:58N 51°43' E 006°25'511.1
2017-May-25 13:29N 51°40' E 006°32'4 8.9
2017-May-25 13:00N 51°36' E 006°36'4 8.3
2017-May-25 12:30N 51°33' E 006°41'5 9.1
2017-May-25 12:00N 51°29' E 006°41'510.7
2017-May-25 11:30N 51°24' E 006°45'7 8.1
2017-May-25 10:36N 51°17' E 006°42'211.0
2017-May-25 10:22N 51°15' E 006°45'2 6.5
2017-May-25 10:00N 51°13' E 006°44'5 9.1
2017-May-25 09:30N 51°09' E 006°48'12 8.6
2017-May-25 08:06N 50°59' E 006°59'2 9.9
2017-May-25 07:56N 50°58' E 006°60'4 9.5
2017-May-25 07:30N 50°54' E 007°01'4 7.9
2017-May-25 06:59N 50°50' E 006°59'510.8
2017-May-25 06:30N 50°46' E 007°05'611.4
2017-May-25 05:59N 50°41' E 007°11'90 9.2
2017-May-24 20:11N 49°27' E 008°29'14 7.5
2017-May-24 18:20N 49°13' E 008°23'  
2017-May-22 13:18N 49°12' E 008°23'1 2.3
2017-May-22 13:00N 49°13' E 008°23'99 3.8
2017-May-21 10:54N 50°41' E 007°11'3 5.0
2017-May-21 10:18N 50°43' E 007°08'1 4.9
2017-May-21 10:00N 50°44' E 007°07'3 5.1
2017-May-21 09:30N 50°46' E 007°04'2 4.8
2017-May-21 08:59N 50°48' E 007°02'2 4.4
2017-May-21 08:29N 50°50' E 006°59'2 4.2
2017-May-21 07:57N 50°52' E 007°01'2 4.2
2017-May-21 07:24N 50°54' E 007°03'2 4.5
2017-May-21 06:51N 50°54' E 006°59'2 5.3
2017-May-21 06:30N 50°56' E 006°58'14 3.6
2017-May-21 02:40N 51°09' E 006°49'1 4.5
2017-May-21 02:29N 51°09' E 006°48'2 4.7
2017-May-21 02:00N 51°11' E 006°47'2 4.0
2017-May-21 01:30N 51°12' E 006°44'2 3.7
2017-May-21 01:00N 51°14' E 006°44'1 2.7
2017-May-21 00:30N 51°15' E 006°46'7 4.0
2017-May-20 22:47N 51°21' E 006°40'1 3.5
2017-May-20 22:23N 51°22' E 006°40'2 5.2
2017-May-20 22:00N 51°23' E 006°43'2 4.9
2017-May-20 21:30N 51°25' E 006°44'2 4.8
2017-May-20 21:00N 51°27' E 006°43'2 4.8
2017-May-20 20:30N 51°29' E 006°41'2 4.6
2017-May-20 20:00N 51°31' E 006°43'3 5.1
2017-May-20 19:30N 51°33' E 006°41'2 4.0
2017-May-20 19:00N 51°35' E 006°39'2 4.3
2017-May-20 18:30N 51°35' E 006°36'3 5.9
2017-May-20 18:00N 51°38' E 006°35'2 4.2
2017-May-20 17:30N 51°40' E 006°34'3 5.8
2017-May-20 17:01N 51°40' E 006°30'3 5.7
2017-May-20 16:30N 51°42' E 006°27'2 4.7
2017-May-20 16:00N 51°44' E 006°25'2 4.2
2017-May-20 15:31N 51°45' E 006°22'3 5.6
2017-May-20 15:01N 51°47' E 006°19'3 6.4
2017-May-20 14:30N 51°49' E 006°15'6 6.0
2017-May-20 13:31N 51°51' E 006°06'2 4.1
2017-May-20 13:01N 51°52' E 006°03'0 0.0
2017-May-20 12:31N 51°52' E 006°03'0 0.9
2017-May-20 12:00N 51°52' E 006°03'1 2.1
2017-May-20 11:30N 51°53' E 006°01'3 5.4
2017-May-20 11:01N 51°51' E 005°57'3 5.3
2017-May-20 10:31N 51°52' E 005°53'3 5.2
2017-May-20 10:01N 51°52' E 005°49'3 6.4
2017-May-20 09:29N 51°53' E 005°44'3 6.2
2017-May-20 09:01N 51°54' E 005°39'  

Dump ship's entire track history